< < Back
Terminal Aerodrome Forecast


Current Version              Previous Versions:   1  2  3  4  5  6  7  8  9  

Terminal Aerodrome Forecast

856
FTUS42 KGSP 200800 AAA
TAFCLT
TAF AMD
KCLT 200857Z 2009/2106 02010KT P6SM BKN070
     FM201600 03013G22KT P6SM SCT070
     FM210200 03008KT P6SM FEW060 SCT250=



Latest METAR

710
SAUS70 KWBC 201600 RRA
MTRCLT
METAR KCLT 201552Z 04015G24KT 10SM FEW250 17/01 A3027 RMK AO2 PK WND
03027/1530 SLP249 T01670011


USA.gov is the U.S. government's official web portal to all federal, state and local government web resources and services.